Time;durP1;ratioP1;P1;durP2;ratioP2;P2;SDS_P1;SDS_P2;PMS_P1;PMS_P2;Temp;Humidity;BMP_temperature;BMP_pressure;BME280_temperature;BME280_humidity;BME280_pressure;Samples;Min_cycle;Max_cycle;Signal;HPM_P1;HPM_P2
2021/09/29 00:01:00;;;;;;;;;;;23.20;59.60;;;;;;5022216;28;20225;-69
2021/09/29 00:03:27;;;;;;;;;;;23.20;59.60;;;;;;5027920;28;19927;-70
2021/09/29 00:05:54;;;;;;;;;;;23.20;59.70;;;;;;5028953;28;19968;-70
2021/09/29 00:08:21;;;;;;;;;;;23.20;59.70;;;;;;5059773;28;20093;-69
2021/09/29 00:10:48;;;;;;;;;;;23.20;59.70;;;;;;5023068;28;20011;-69
2021/09/29 00:13:15;;;;;;;;;;;23.20;59.80;;;;;;5026237;28;20348;-69
2021/09/29 00:15:42;;;;;;;;;;;23.20;59.80;;;;;;5028364;28;19947;-69
2021/09/29 00:18:09;;;;;;;;;;;23.20;59.80;;;;;;5027759;28;19921;-69
2021/09/29 00:20:36;;;;;;;;;;;23.20;59.80;;;;;;5022359;28;20673;-66
2021/09/29 00:23:03;;;;;;;;;;;23.20;59.80;;;;;;5058167;28;20378;-69
2021/09/29 00:25:30;;;;;;;;;;;23.20;59.80;;;;;;5027698;28;20011;-70
2021/09/29 00:27:57;;;;;;;;;;;23.20;59.80;;;;;;5028329;28;20408;-69
2021/09/29 00:30:24;;;;;;;;;;;23.20;59.80;;;;;;5020556;28;20348;-69
2021/09/29 00:32:51;;;;;;;;;;;23.20;59.80;;;;;;5024860;28;20176;-69
2021/09/29 00:35:18;;;;;;;;;;;23.20;59.80;;;;;;5027580;28;19920;-70
2021/09/29 00:37:45;;;;;;;;;;;23.20;59.80;;;;;;5028326;28;19921;-69
2021/09/29 00:40:13;;;;;;;;;;;23.20;59.80;;;;;;5023861;28;20333;-69
2021/09/29 00:42:39;;;;;;;;;;;23.20;59.80;;;;;;5023998;28;20154;-70
2021/09/29 00:45:07;;;;;;;;;;;23.10;59.70;;;;;;5028260;28;20000;-70
2021/09/29 00:47:34;;;;;;;;;;;23.20;59.80;;;;;;5027651;28;19921;-70
2021/09/29 00:50:02;;;;;;;;;;;23.10;59.70;;;;;;5027009;28;20024;-67
2021/09/29 00:52:29;;;;;;;;;;;23.10;59.70;;;;;;5027113;28;20393;-70
2021/09/29 00:54:56;;;;;;;;;;;23.20;59.80;;;;;;5031313;28;19968;-66
2021/09/29 00:57:23;;;;;;;;;;;23.10;59.70;;;;;;5031227;28;20229;-70
2021/09/29 00:59:50;;;;;;;;;;;23.10;59.70;;;;;;5027108;28;19921;-69
2021/09/29 01:02:21;;;;;;;;;;;23.20;59.80;;;;;;5026374;28;20505;-70
2021/09/29 01:04:48;;;;;;;;;;;23.10;59.70;;;;;;5063311;28;19925;-70
2021/09/29 01:07:23;;;;;;;;;;;23.10;59.70;;;;;;5030672;28;19996;-70
2021/09/29 01:10:07;;;;;;;;;;;23.10;59.70;;;;;;5026178;28;19921;-67
2021/09/29 01:12:43;;;;;;;;;;;23.10;59.70;;;;;;5025737;28;19967;-70
2021/09/29 01:15:19;;;;;;;;;;;23.10;59.70;;;;;;5030828;28;19972;-70
2021/09/29 01:17:48;;;;;;;;;;;23.10;59.70;;;;;;5031780;28;20205;-69
2021/09/29 01:20:18;;;;;;;;;;;23.10;59.60;;;;;;5041712;28;19921;-69
2021/09/29 01:23:06;;;;;;;;;;;23.10;59.70;;;;;;5029826;28;19924;-69
2021/09/29 01:25:51;;;;;;;;;;;23.10;59.70;;;;;;5031562;28;19920;-71
2021/09/29 01:28:19;;;;;;;;;;;23.10;59.60;;;;;;5031606;28;20195;-70
2021/09/29 01:30:46;;;;;;;;;;;23.10;59.60;;;;;;5024720;28;20205;-70
2021/09/29 01:33:14;;;;;;;;;;;23.10;59.60;;;;;;5028611;28;20332;-69
2021/09/29 01:35:41;;;;;;;;;;;23.10;59.60;;;;;;5030301;28;20441;-70
2021/09/29 01:38:08;;;;;;;;;;;23.10;59.60;;;;;;5031112;28;20260;-69
2021/09/29 01:40:35;;;;;;;;;;;23.10;59.60;;;;;;5024760;28;20229;-69
2021/09/29 01:43:02;;;;;;;;;;;23.10;59.60;;;;;;5028198;28;20043;-70
2021/09/29 01:45:29;;;;;;;;;;;23.10;59.60;;;;;;5030926;28;20104;-70
2021/09/29 01:47:56;;;;;;;;;;;23.10;59.60;;;;;;5046078;28;19921;-70
2021/09/29 01:50:28;;;;;;;;;;;23.10;59.60;;;;;;5024889;28;19925;-66
2021/09/29 01:52:56;;;;;;;;;;;23.10;59.70;;;;;;5028498;28;19924;-70
2021/09/29 01:55:24;;;;;;;;;;;23.10;59.70;;;;;;5029632;28;19944;-69
2021/09/29 01:57:51;;;;;;;;;;;23.00;59.60;;;;;;5030762;28;20015;-69
2021/09/29 02:00:18;;;;;;;;;;;23.00;59.70;;;;;;5023165;28;20273;-65
2021/09/29 02:02:46;;;;;;;;;;;23.00;59.70;;;;;;5028004;28;20007;-69
2021/09/29 02:05:13;;;;;;;;;;;23.00;59.70;;;;;;5030685;28;19921;-71
2021/09/29 02:07:40;;;;;;;;;;;23.00;59.60;;;;;;5030335;28;20416;-70
2021/09/29 02:10:08;;;;;;;;;;;23.00;59.60;;;;;;5026678;28;19960;-67
2021/09/29 02:12:35;;;;;;;;;;;23.00;59.60;;;;;;5025269;28;20422;-70
2021/09/29 02:15:03;;;;;;;;;;;23.00;59.60;;;;;;5029764;28;20374;-71
2021/09/29 02:17:30;;;;;;;;;;;23.00;59.60;;;;;;5030038;28;20458;-70
2021/09/29 02:19:57;;;;;;;;;;;23.00;60.20;;;;;;5025450;28;19961;-70
2021/09/29 02:22:24;;;;;;;;;;;23.00;59.60;;;;;;5025068;28;19980;-69
2021/09/29 02:24:51;;;;;;;;;;;23.00;59.60;;;;;;5030165;28;20003;-67
2021/09/29 02:27:18;;;;;;;;;;;23.00;59.60;;;;;;5029348;28;19964;-69
2021/09/29 02:29:45;;;;;;;;;;;23.00;59.60;;;;;;5026050;28;20035;-70
2021/09/29 02:32:12;;;;;;;;;;;23.00;59.60;;;;;;5025686;28;19956;-69
2021/09/29 02:34:40;;;;;;;;;;;23.00;59.60;;;;;;5029602;28;20147;-71
2021/09/29 02:37:07;;;;;;;;;;;23.00;59.60;;;;;;5029345;28;20004;-70
2021/09/29 02:39:34;;;;;;;;;;;23.00;59.60;;;;;;5028565;28;20365;-69
2021/09/29 02:42:03;;;;;;;;;;;23.10;59.60;;;;;;5021269;28;20012;-69
2021/09/29 02:44:31;;;;;;;;;;;23.00;59.60;;;;;;5029319;28;19956;-70
2021/09/29 02:46:58;;;;;;;;;;;23.00;59.60;;;;;;5029473;28;19921;-70
2021/09/29 02:49:25;;;;;;;;;;;23.00;59.60;;;;;;5029380;28;20008;-71
2021/09/29 02:51:52;;;;;;;;;;;23.00;59.50;;;;;;5019681;28;19925;-70
2021/09/29 02:54:19;;;;;;;;;;;23.00;59.50;;;;;;5029291;28;20306;-69
2021/09/29 02:56:46;;;;;;;;;;;23.00;59.50;;;;;;5029017;28;19960;-70
2021/09/29 02:59:13;;;;;;;;;;;23.00;59.50;;;;;;5029306;28;19972;-70
2021/09/29 03:01:40;;;;;;;;;;;23.00;59.50;;;;;;5020114;28;20301;-69
2021/09/29 03:04:07;;;;;;;;;;;23.00;59.50;;;;;;5029332;28;19921;-69
2021/09/29 03:06:34;;;;;;;;;;;23.00;59.50;;;;;;5028922;28;19921;-70
2021/09/29 03:09:01;;;;;;;;;;;23.00;59.50;;;;;;5061012;28;20036;-69
2021/09/29 03:11:28;;;;;;;;;;;23.00;59.50;;;;;;5020399;28;19921;-67
2021/09/29 03:13:56;;;;;;;;;;;23.00;59.60;;;;;;5028707;28;19968;-70
2021/09/29 03:16:23;;;;;;;;;;;23.00;59.60;;;;;;5028402;28;20147;-69
2021/09/29 03:18:50;;;;;;;;;;;23.00;59.60;;;;;;5029402;28;19932;-69
2021/09/29 03:21:17;;;;;;;;;;;23.00;59.60;;;;;;5020833;28;19924;-70
2021/09/29 03:23:44;;;;;;;;;;;23.00;59.60;;;;;;5027656;28;19921;-70
2021/09/29 03:26:11;;;;;;;;;;;23.00;59.60;;;;;;5029088;28;20012;-70
2021/09/29 03:28:38;;;;;;;;;;;23.00;59.60;;;;;;5028731;28;19968;-70
2021/09/29 03:31:05;;;;;;;;;;;22.90;59.50;;;;;;5021603;28;20000;-69
2021/09/29 03:33:32;;;;;;;;;;;22.90;59.60;;;;;;5028392;28;19921;-69
2021/09/29 03:35:59;;;;;;;;;;;23.00;59.60;;;;;;5027366;28;19921;-70
2021/09/29 03:38:30;;;;;;;;;;;23.00;59.60;;;;;;5027071;28;20351;-69
2021/09/29 03:40:57;;;;;;;;;;;22.90;59.50;;;;;;5020817;28;20008;-69
2021/09/29 03:43:24;;;;;;;;;;;22.90;59.50;;;;;;5026478;28;19968;-69
2021/09/29 03:45:51;;;;;;;;;;;22.90;59.50;;;;;;5028524;28;19921;-70
2021/09/29 03:48:18;;;;;;;;;;;22.90;59.50;;;;;;5028082;28;19928;-70
2021/09/29 03:50:45;;;;;;;;;;;22.90;59.50;;;;;;5024128;28;20309;-70
2021/09/29 03:53:12;;;;;;;;;;;22.90;59.50;;;;;;5026812;28;19929;-70
2021/09/29 03:55:39;;;;;;;;;;;22.90;59.50;;;;;;5039656;28;19927;-69
2021/09/29 03:58:06;;;;;;;;;;;22.90;59.50;;;;;;5040439;28;20016;-70
2021/09/29 04:00:33;;;;;;;;;;;22.90;59.50;;;;;;5025081;28;19951;-66
2021/09/29 04:03:00;;;;;;;;;;;23.00;59.50;;;;;;5022612;28;19951;-69
2021/09/29 04:05:27;;;;;;;;;;;22.90;59.40;;;;;;5022591;28;19925;-70
2021/09/29 04:07:54;;;;;;;;;;;22.90;59.40;;;;;;5068579;28;20015;-69
2021/09/29 04:10:21;;;;;;;;;;;22.90;59.40;;;;;;5029731;28;19924;-69
2021/09/29 04:12:49;;;;;;;;;;;22.90;59.40;;;;;;5037403;28;19932;-70
2021/09/29 04:15:16;;;;;;;;;;;22.90;59.40;;;;;;5044268;28;19974;-70
2021/09/29 04:17:43;;;;;;;;;;;22.90;59.40;;;;;;5047673;28;20016;-70
2021/09/29 04:20:10;;;;;;;;;;;22.90;59.30;;;;;;5033372;28;19976;-69
2021/09/29 04:22:37;;;;;;;;;;;23.00;59.40;;;;;;5033201;28;20000;-70
2021/09/29 04:25:05;;;;;;;;;;;22.90;59.30;;;;;;5038168;28;19959;-70
2021/09/29 04:27:32;;;;;;;;;;;23.00;59.30;;;;;;5040979;28;19928;-70
2021/09/29 04:29:59;;;;;;;;;;;23.00;59.40;;;;;;5040300;28;20148;-69
2021/09/29 04:32:26;;;;;;;;;;;22.90;59.40;;;;;;5058521;28;20176;-70
2021/09/29 04:34:53;;;;;;;;;;;22.90;59.40;;;;;;5035678;28;20413;-70
2021/09/29 04:37:20;;;;;;;;;;;22.90;59.40;;;;;;5037893;28;20189;-70
2021/09/29 04:39:47;;;;;;;;;;;22.90;59.40;;;;;;5037040;28;19925;-69
2021/09/29 04:42:14;;;;;;;;;;;22.90;59.50;;;;;;5033466;28;19920;-71
2021/09/29 04:44:41;;;;;;;;;;;22.90;59.50;;;;;;5037785;28;19952;-70
2021/09/29 04:47:08;;;;;;;;;;;22.90;59.40;;;;;;5034959;28;19972;-71
2021/09/29 04:49:35;;;;;;;;;;;22.90;59.40;;;;;;5034611;28;20382;-69
2021/09/29 04:52:02;;;;;;;;;;;22.90;59.30;;;;;;5027530;28;20002;-71
2021/09/29 04:54:29;;;;;;;;;;;22.90;59.30;;;;;;5033498;28;19921;-70
2021/09/29 04:56:56;;;;;;;;;;;22.90;59.30;;;;;;5035669;28;19975;-69
2021/09/29 04:59:23;;;;;;;;;;;22.90;59.30;;;;;;5043110;28;20052;-70
2021/09/29 05:01:49;;;;;;;;;;;22.90;59.30;;;;;;5027829;28;20021;-69
2021/09/29 05:04:17;;;;;;;;;;;22.90;59.30;;;;;;5034301;28;19945;-70
2021/09/29 05:06:44;;;;;;;;;;;22.90;59.20;;;;;;5034382;28;20370;-70
2021/09/29 05:09:11;;;;;;;;;;;22.90;59.20;;;;;;5030309;28;20358;-69
2021/09/29 05:11:47;;;;;;;;;;;22.90;59.00;;;;;;5023141;28;19921;-67
2021/09/29 05:14:15;;;;;;;;;;;22.90;58.80;;;;;;5022507;28;20020;-69
2021/09/29 05:16:42;;;;;;;;;;;22.90;58.80;;;;;;5033562;28;20122;-70
2021/09/29 05:19:09;;;;;;;;;;;22.90;59.20;;;;;;5027974;28;19921;-69
2021/09/29 05:21:36;;;;;;;;;;;23.00;58.70;;;;;;5021475;28;20024;-65
2021/09/29 05:24:03;;;;;;;;;;;23.00;58.70;;;;;;5026954;28;19971;-70
2021/09/29 05:26:30;;;;;;;;;;;22.90;58.80;;;;;;5023397;28;19984;-70
2021/09/29 05:29:02;;;;;;;;;;;23.00;58.90;;;;;;5019164;28;20027;-67
2021/09/29 05:31:29;;;;;;;;;;;23.00;58.90;;;;;;5030096;28;20393;-66
2021/09/29 05:33:56;;;;;;;;;;;23.00;58.80;;;;;;5019041;28;19939;-70
2021/09/29 05:36:23;;;;;;;;;;;23.00;58.80;;;;;;5012533;28;19929;-66
2021/09/29 05:38:50;;;;;;;;;;;23.00;58.70;;;;;;5017181;28;20296;-66
2021/09/29 05:41:17;;;;;;;;;;;23.00;58.50;;;;;;5013638;28;20597;-64
2021/09/29 05:44:07;;;;;;;;;;;23.00;58.50;;;;;;5014528;28;19928;-70
2021/09/29 05:46:35;;;;;;;;;;;23.10;58.40;;;;;;5022892;28;20457;-66
2021/09/29 05:49:02;;;;;;;;;;;23.10;58.20;;;;;;5021865;28;20352;-70
2021/09/29 05:54:55;;;;;;;;;;;23.10;57.80;;;;;;5013195;28;19925;-68
2021/09/29 05:57:22;;;;;;;;;;;23.20;57.70;;;;;;5020648;28;20012;-69
2021/09/29 06:00:11;;;;;;;;;;;23.20;57.40;;;;;;5020191;28;19924;-67
2021/09/29 06:02:42;;;;;;;;;;;23.20;57.20;;;;;;5015972;28;19931;-67
2021/09/29 06:05:10;;;;;;;;;;;23.20;56.90;;;;;;5014954;28;19944;-68
2021/09/29 06:07:37;;;;;;;;;;;23.20;56.60;;;;;;5024351;28;19971;-67
2021/09/29 06:10:18;;;;;;;;;;;23.20;56.40;;;;;;5020607;28;20059;-67
2021/09/29 06:12:45;;;;;;;;;;;23.30;56.20;;;;;;5012506;28;20055;-68
2021/09/29 06:15:20;;;;;;;;;;;23.30;56.00;;;;;;5017933;28;19980;-71
2021/09/29 06:17:58;;;;;;;;;;;23.30;55.90;;;;;;5023343;28;19936;-69
2021/09/29 06:20:27;;;;;;;;;;;23.30;55.80;;;;;;5018185;28;19917;-70
2021/09/29 06:22:54;;;;;;;;;;;23.40;55.70;;;;;;5015082;28;19935;-68
2021/09/29 06:25:22;;;;;;;;;;;23.40;56.30;;;;;;5015265;28;20754;-68
2021/09/29 06:27:49;;;;;;;;;;;23.30;55.70;;;;;;5020491;28;19972;-67
2021/09/29 06:30:18;;;;;;;;;;;23.40;55.80;;;;;;5019607;28;19975;-72
2021/09/29 06:32:45;;;;;;;;;;;23.40;55.90;;;;;;5013842;28;19929;-68
2021/09/29 06:35:12;;;;;;;;;;;23.40;55.90;;;;;;5015615;28;19921;-72
2021/09/29 06:37:41;;;;;;;;;;;23.40;55.90;;;;;;5017922;28;20017;-69
2021/09/29 06:40:22;;;;;;;;;;;23.50;55.90;;;;;;5019171;28;20023;-73
2021/09/29 06:42:49;;;;;;;;;;;23.50;55.90;;;;;;5008527;28;19964;-69
2021/09/29 06:45:16;;;;;;;;;;;23.50;55.80;;;;;;5006090;28;20019;-67
2021/09/29 06:47:45;;;;;;;;;;;23.60;55.80;;;;;;5017840;28;20386;-68
2021/09/29 06:50:27;;;;;;;;;;;23.60;55.80;;;;;;5018233;28;19925;-70
2021/09/29 06:52:57;;;;;;;;;;;23.60;55.80;;;;;;5012307;28;20421;-71
2021/09/29 06:55:23;;;;;;;;;;;23.70;55.80;;;;;;5029283;28;19939;-68
2021/09/29 06:57:51;;;;;;;;;;;23.70;55.70;;;;;;5017836;28;19921;-69
2021/09/29 07:00:18;;;;;;;;;;;23.80;55.80;;;;;;5021507;28;19968;-68
2021/09/29 07:02:46;;;;;;;;;;;23.80;55.80;;;;;;5014617;28;20182;-69
2021/09/29 07:05:14;;;;;;;;;;;23.80;55.70;;;;;;5020920;28;19932;-71
2021/09/29 07:07:42;;;;;;;;;;;23.90;55.60;;;;;;5017819;28;19952;-67
2021/09/29 07:13:07;;;;;;;;;;;23.90;55.40;;;;;;5017705;28;19975;-70
2021/09/29 07:15:34;;;;;;;;;;;24.00;55.30;;;;;;5017683;28;19927;-69
2021/09/29 07:18:03;;;;;;;;;;;24.00;55.30;;;;;;5012640;28;19925;-71
2021/09/29 07:20:30;;;;;;;;;;;24.10;55.00;;;;;;5018803;28;19921;-69
2021/09/29 07:25:44;;;;;;;;;;;24.20;54.80;;;;;;5017535;28;19939;-68
2021/09/29 07:28:11;;;;;;;;;;;24.20;54.60;;;;;;5049185;28;20021;-74
2021/09/29 07:30:40;;;;;;;;;;;24.30;54.30;;;;;;5015976;28;20011;-73
2021/09/29 07:33:08;;;;;;;;;;;24.30;54.30;;;;;;5011181;28;19929;-67
2021/09/29 07:35:38;;;;;;;;;;;24.30;54.10;;;;;;5018286;28;19927;-69
2021/09/29 07:38:05;;;;;;;;;;;24.40;54.00;;;;;;5024433;28;20298;-73
2021/09/29 07:41:00;;;;;;;;;;;24.40;54.50;;;;;;5019082;28;19927;-68
2021/09/29 07:43:56;;;;;;;;;;;24.50;53.80;;;;;;5008046;28;19936;-71
2021/09/29 07:46:31;;;;;;;;;;;24.50;53.70;;;;;;5018015;28;20530;-75
2021/09/29 07:48:58;;;;;;;;;;;24.50;53.60;;;;;;5016831;28;19947;-71
2021/09/29 07:51:26;;;;;;;;;;;24.60;53.60;;;;;;5010189;28;20428;-69
2021/09/29 07:53:53;;;;;;;;;;;24.60;53.40;;;;;;5008959;28;19925;-75
2021/09/29 07:56:20;;;;;;;;;;;24.60;53.50;;;;;;5016272;28;20378;-76
2021/09/29 07:58:48;;;;;;;;;;;24.60;53.50;;;;;;5020396;28;19987;-69
2021/09/29 08:01:28;;;;;;;;;;;24.70;53.60;;;;;;5018339;28;19972;-69
2021/09/29 08:03:56;;;;;;;;;;;24.70;53.60;;;;;;5015204;28;19928;-68
2021/09/29 08:06:23;;;;;;;;;;;24.70;53.60;;;;;;5025725;28;20627;-68
2021/09/29 08:08:53;;;;;;;;;;;24.70;53.60;;;;;;5055814;28;19979;-65
2021/09/29 08:11:22;;;;;;;;;;;24.70;53.50;;;;;;5019960;28;20026;-74
2021/09/29 08:13:49;;;;;;;;;;;24.80;53.70;;;;;;5015636;28;19925;-68
2021/09/29 08:16:16;;;;;;;;;;;24.80;53.50;;;;;;5019741;28;19975;-71
2021/09/29 08:18:44;;;;;;;;;;;24.80;53.50;;;;;;5025737;28;19932;-71
2021/09/29 08:27:44;;;;;;;;;;;24.90;53.10;;;;;;5026285;28;20322;-69
2021/09/29 08:30:20;;;;;;;;;;;25.00;53.00;;;;;;5022728;28;20254;-70
2021/09/29 08:35:38;;;;;;;;;;;25.10;52.90;;;;;;5019004;28;19931;-73
2021/09/29 08:38:13;;;;;;;;;;;25.10;52.80;;;;;;5018127;28;20442;-72
2021/09/29 08:44:24;;;;;;;;;;;25.20;52.80;;;;;;5018756;28;19928;-70
2021/09/29 08:47:07;;;;;;;;;;;25.20;52.60;;;;;;5018653;28;20011;-69
2021/09/29 08:49:53;;;;;;;;;;;25.20;52.70;;;;;;5018838;28;19948;-71
2021/09/29 08:52:53;;;;;;;;;;;25.30;52.70;;;;;;5017659;28;20006;-69
2021/09/29 09:18:02;;;;;;;;;;;25.60;53.70;;;;;;5020447;28;19929;-68
2021/09/29 09:20:42;;;;;;;;;;;25.60;53.70;;;;;;5020113;28;20004;-69
2021/09/29 09:23:39;;;;;;;;;;;25.70;53.90;;;;;;5011268;28;19929;-67
2021/09/29 09:26:11;;;;;;;;;;;25.70;53.70;;;;;;5018392;28;19925;-68
2021/09/29 09:28:39;;;;;;;;;;;25.70;53.70;;;;;;5020549;28;20028;-69
2021/09/29 09:31:17;;;;;;;;;;;25.80;53.40;;;;;;5018677;28;20004;-68
2021/09/29 09:33:46;;;;;;;;;;;25.90;53.40;;;;;;5014810;28;19943;-71
2021/09/29 09:36:13;;;;;;;;;;;25.90;52.90;;;;;;5018574;28;20687;-67
2021/09/29 09:38:41;;;;;;;;;;;25.90;52.60;;;;;;5013452;28;19971;-72
2021/09/29 09:41:17;;;;;;;;;;;26.00;52.60;;;;;;5018462;28;20628;-72
2021/09/29 09:44:06;;;;;;;;;;;26.00;52.50;;;;;;5028901;28;19928;-70
2021/09/29 09:46:36;;;;;;;;;;;26.00;52.40;;;;;;5017693;28;20003;-71
2021/09/29 09:49:06;;;;;;;;;;;26.00;52.40;;;;;;5017725;28;19924;-68
2021/09/29 09:51:33;;;;;;;;;;;25.90;52.40;;;;;;5013896;28;19968;-68
2021/09/29 09:54:00;;;;;;;;;;;26.00;52.40;;;;;;5012270;28;19968;-70
2021/09/29 09:56:30;;;;;;;;;;;26.00;52.40;;;;;;5020214;28;20040;-69
2021/09/29 09:58:57;;;;;;;;;;;26.00;52.30;;;;;;5020219;28;20027;-67
2021/09/29 10:01:28;;;;;;;;;;;26.00;52.50;;;;;;5016438;28;20098;-69
2021/09/29 10:03:55;;;;;;;;;;;26.00;52.70;;;;;;5009758;28;19921;-68
2021/09/29 10:06:24;;;;;;;;;;;26.00;52.60;;;;;;5020784;28;20555;-68
2021/09/29 10:12:20;;;;;;;;;;;26.00;52.60;;;;;;5017775;28;19921;-74
2021/09/29 10:14:51;;;;;;;;;;;25.90;52.70;;;;;;5021653;28;20019;-76
2021/09/29 10:27:02;;;;;;;;;;;26.00;52.60;;;;;;5018134;28;20390;-70
2021/09/29 10:29:35;;;;;;;;;;;26.00;52.60;;;;;;5018742;28;19922;-71
2021/09/29 10:35:13;;;;;;;;;;;26.00;52.50;;;;;;5026894;28;20415;-71
2021/09/29 10:40:40;;;;;;;;;;;26.10;52.60;;;;;;5019529;28;20286;-73
2021/09/29 10:50:34;;;;;;;;;;;26.10;52.60;;;;;;5017373;28;19929;-70
2021/09/29 11:04:40;;;;;;;;;;;26.30;52.90;;;;;;5018070;28;20291;-69
2021/09/29 11:07:22;;;;;;;;;;;26.30;52.80;;;;;;5018295;28;19976;-67
2021/09/29 11:29:51;;;;;;;;;;;26.70;52.50;;;;;;5018664;28;20012;-65
2021/09/29 11:32:36;;;;;;;;;;;26.70;52.50;;;;;;5016372;28;19928;-69
2021/09/29 11:35:20;;;;;;;;;;;26.70;52.50;;;;;;5017317;28;20024;-69
2021/09/29 12:08:35;;;;;;;;;;;26.80;52.30;;;;;;5016511;28;20004;-67
2021/09/29 12:11:10;;;;;;;;;;;26.80;52.30;;;;;;5013022;28;19933;-67
2021/09/29 12:13:46;;;;;;;;;;;26.80;52.50;;;;;;5010601;28;19928;-68
2021/09/29 12:16:24;;;;;;;;;;;26.70;52.30;;;;;;5024663;28;20357;-70
2021/09/29 12:19:08;;;;;;;;;;;26.80;52.40;;;;;;5020164;28;19921;-67
2021/09/29 12:22:00;;;;;;;;;;;26.70;52.40;;;;;;5013696;28;20019;-67
2021/09/29 12:24:48;;;;;;;;;;;26.70;52.50;;;;;;5013796;28;20123;-66
2021/09/29 12:27:22;;;;;;;;;;;26.70;52.60;;;;;;5024361;28;19951;-66
2021/09/29 12:33:07;;;;;;;;;;;26.70;52.60;;;;;;5013115;28;19996;-70
2021/09/29 12:35:50;;;;;;;;;;;26.70;52.60;;;;;;5019866;28;19932;-67
2021/09/29 12:38:18;;;;;;;;;;;26.60;52.50;;;;;;5021522;28;19917;-69
2021/09/29 12:44:13;;;;;;;;;;;26.70;52.70;;;;;;5012617;28;20582;-68
2021/09/29 12:46:44;;;;;;;;;;;26.70;52.70;;;;;;5056981;28;19921;-67
2021/09/29 12:49:16;;;;;;;;;;;26.60;52.60;;;;;;5022730;28;19928;-70
2021/09/29 12:51:45;;;;;;;;;;;26.60;52.60;;;;;;5017549;28;20393;-68
2021/09/29 12:54:20;;;;;;;;;;;26.60;52.60;;;;;;5018678;28;20099;-68
2021/09/29 12:56:47;;;;;;;;;;;26.60;52.70;;;;;;5017870;28;19968;-66
2021/09/29 12:59:14;;;;;;;;;;;26.60;52.70;;;;;;5025985;28;19964;-68
2021/09/29 13:01:58;;;;;;;;;;;26.60;52.70;;;;;;5014780;28;20398;-67
2021/09/29 13:04:29;;;;;;;;;;;26.50;52.60;;;;;;5020990;28;19921;-71
2021/09/29 13:06:56;;;;;;;;;;;26.60;52.70;;;;;;5023569;28;19965;-73
2021/09/29 13:09:23;;;;;;;;;;;26.60;52.70;;;;;;5031254;28;20008;-69
2021/09/29 13:12:34;;;;;;;;;;;26.50;52.70;;;;;;5027911;28;19977;-67
2021/09/29 13:15:02;;;;;;;;;;;26.50;52.70;;;;;;5038450;28;20003;-73
2021/09/29 13:17:29;;;;;;;;;;;26.50;52.80;;;;;;5042211;28;19981;-75
2021/09/29 13:20:27;;;;;;;;;;;26.50;52.70;;;;;;5039459;28;20529;-73
2021/09/29 13:22:58;;;;;;;;;;;26.60;52.70;;;;;;5022159;28;19921;-71
2021/09/29 13:36:34;;;;;;;;;;;26.60;52.70;;;;;;5022934;28;20012;-69
2021/09/29 13:39:03;;;;;;;;;;;26.70;52.80;;;;;;5039095;28;19921;-70
2021/09/29 13:41:30;;;;;;;;;;;26.70;52.50;;;;;;5038896;28;20019;-68
2021/09/29 13:44:01;;;;;;;;;;;26.60;52.40;;;;;;5029866;28;19928;-69
2021/09/29 13:46:37;;;;;;;;;;;26.70;52.40;;;;;;5019425;28;19975;-71
2021/09/29 13:49:06;;;;;;;;;;;26.70;52.40;;;;;;5038770;28;19928;-69
2021/09/29 13:51:34;;;;;;;;;;;26.70;52.40;;;;;;5038684;28;20339;-68
2021/09/29 13:54:08;;;;;;;;;;;26.70;52.90;;;;;;5033386;28;19921;-67
2021/09/29 13:56:49;;;;;;;;;;;26.70;52.40;;;;;;5028182;28;19929;-67
2021/09/29 13:59:35;;;;;;;;;;;26.70;52.90;;;;;;5026353;28;19978;-69
2021/09/29 14:30:18;;;;;;;;;;;26.60;52.90;;;;;;5016791;28;20753;-62
2021/09/29 14:32:57;;;;;;;;;;;26.50;53.20;;;;;;5013218;28;20150;-62
2021/09/29 14:35:24;;;;;;;;;;;26.50;53.30;;;;;;5026381;28;20254;-66
2021/09/29 14:37:52;;;;;;;;;;;26.50;53.10;;;;;;5034606;28;20408;-63
2021/09/29 14:40:19;;;;;;;;;;;26.50;53.20;;;;;;5021977;28;19991;-63
2021/09/29 14:42:46;;;;;;;;;;;26.40;53.30;;;;;;5020403;28;19968;-66
2021/09/29 14:45:13;;;;;;;;;;;26.40;53.30;;;;;;5027892;28;20373;-63
2021/09/29 14:47:41;;;;;;;;;;;26.40;53.40;;;;;;5023993;28;20000;-65
2021/09/29 14:50:08;;;;;;;;;;;26.30;53.50;;;;;;5024095;28;19972;-67
2021/09/29 14:52:35;;;;;;;;;;;26.30;53.60;;;;;;5020492;28;20352;-66
2021/09/29 14:55:02;;;;;;;;;;;26.30;53.80;;;;;;5031490;28;19960;-68
2021/09/29 14:57:29;;;;;;;;;;;26.20;53.90;;;;;;5060872;28;19921;-67
2021/09/29 15:00:19;;;;;;;;;;;26.20;53.90;;;;;;5026164;28;20028;-67
2021/09/29 15:02:46;;;;;;;;;;;26.10;54.00;;;;;;5027444;28;20458;-68
2021/09/29 15:05:13;;;;;;;;;;;26.10;54.10;;;;;;5059961;28;19920;-67
2021/09/29 15:07:40;;;;;;;;;;;26.00;54.20;;;;;;5028745;28;19921;-67
2021/09/29 15:10:07;;;;;;;;;;;26.00;54.30;;;;;;5024772;28;19987;-68
2021/09/29 15:12:35;;;;;;;;;;;26.00;54.40;;;;;;5021022;28;19925;-67
2021/09/29 15:17:55;;;;;;;;;;;26.00;54.60;;;;;;5027780;28;19964;-68
2021/09/29 15:23:38;;;;;;;;;;;25.90;54.90;;;;;;5028224;28;19920;-68
2021/09/29 15:29:09;;;;;;;;;;;25.90;55.10;;;;;;5028091;28;20550;-67
2021/09/29 15:48:23;;;;;;;;;;;25.70;55.70;;;;;;5028344;28;19921;-67
2021/09/29 15:51:00;;;;;;;;;;;25.70;55.80;;;;;;5020307;28;19948;-68
2021/09/29 15:53:42;;;;;;;;;;;25.60;56.00;;;;;;5027032;28;19925;-68
2021/09/29 15:56:15;;;;;;;;;;;25.60;56.30;;;;;;5027479;28;20011;-64
2021/09/29 16:01:34;;;;;;;;;;;25.50;56.60;;;;;;5018676;28;19923;-67
2021/09/29 16:07:05;;;;;;;;;;;25.50;57.30;;;;;;5027953;28;20462;-69
2021/09/29 16:13:00;;;;;;;;;;;25.40;59.90;;;;;;5019250;28;20614;-67
2021/09/29 16:18:12;;;;;;;;;;;25.40;61.80;;;;;;5028426;28;19921;-69
2021/09/29 16:23:46;;;;;;;;;;;25.40;62.10;;;;;;5030173;28;19927;-69
2021/09/29 16:35:01;;;;;;;;;;;25.20;61.30;;;;;;5031666;28;20628;-68
2021/09/29 16:37:29;;;;;;;;;;;25.10;61.60;;;;;;5031629;28;20584;-68
2021/09/29 16:39:56;;;;;;;;;;;25.10;62.40;;;;;;5026204;28;20357;-68
2021/09/29 16:42:23;;;;;;;;;;;25.10;63.10;;;;;;5024122;28;19994;-65
2021/09/29 16:44:51;;;;;;;;;;;25.10;63.60;;;;;;5031441;28;19921;-68
2021/09/29 16:47:19;;;;;;;;;;;25.10;63.70;;;;;;5031565;28;19925;-68
2021/09/29 16:49:46;;;;;;;;;;;25.10;63.60;;;;;;5030142;28;20363;-68
2021/09/29 16:52:25;;;;;;;;;;;25.00;63.10;;;;;;5023808;28;19921;-68
2021/09/29 16:54:53;;;;;;;;;;;25.00;62.70;;;;;;5031465;28;19971;-68
2021/09/29 16:57:31;;;;;;;;;;;25.00;62.40;;;;;;5031390;28;20306;-68
2021/09/29 17:00:25;;;;;;;;;;;25.00;61.90;;;;;;5028062;28;19971;-68
2021/09/29 17:02:52;;;;;;;;;;;25.00;61.60;;;;;;5024490;28;20623;-68
2021/09/29 17:05:19;;;;;;;;;;;24.90;61.30;;;;;;5031610;28;19928;-68
2021/09/29 17:07:46;;;;;;;;;;;24.90;61.10;;;;;;5031178;28;20007;-68
2021/09/29 17:10:13;;;;;;;;;;;24.90;61.00;;;;;;5031327;28;20020;-68
2021/09/29 17:12:44;;;;;;;;;;;24.90;60.80;;;;;;5026760;28;19928;-66
2021/09/29 17:15:11;;;;;;;;;;;24.90;60.80;;;;;;5030112;28;19975;-68
2021/09/29 17:17:41;;;;;;;;;;;24.90;60.70;;;;;;5031895;28;19921;-68
2021/09/29 17:20:15;;;;;;;;;;;24.90;60.70;;;;;;5030001;28;19960;-68
2021/09/29 17:22:43;;;;;;;;;;;24.90;60.70;;;;;;5024935;28;19968;-68
2021/09/29 17:25:10;;;;;;;;;;;24.80;60.60;;;;;;5030362;28;19944;-68
2021/09/29 17:27:37;;;;;;;;;;;24.80;60.60;;;;;;5017599;28;20052;-68
2021/09/29 17:30:07;;;;;;;;;;;24.80;60.60;;;;;;5010852;28;19979;-66
2021/09/29 17:35:47;;;;;;;;;;;24.80;60.60;;;;;;5030811;28;20293;-68
2021/09/29 17:52:34;;;;;;;;;;;24.70;60.70;;;;;;5025011;28;20023;-68
2021/09/29 17:55:03;;;;;;;;;;;24.70;60.70;;;;;;5030282;28;19921;-68
2021/09/29 17:57:30;;;;;;;;;;;24.70;60.70;;;;;;5030419;28;20016;-66
2021/09/29 17:59:57;;;;;;;;;;;24.70;60.70;;;;;;5027615;28;19963;-68
2021/09/29 18:02:31;;;;;;;;;;;24.60;60.60;;;;;;5055920;28;20405;-69
2021/09/29 18:05:03;;;;;;;;;;;24.60;60.60;;;;;;5030220;28;19940;-69
2021/09/29 18:07:38;;;;;;;;;;;24.60;60.60;;;;;;5030027;28;19975;-68
2021/09/29 18:10:37;;;;;;;;;;;24.60;60.60;;;;;;5027450;28;20599;-68
2021/09/29 18:13:09;;;;;;;;;;;24.60;60.60;;;;;;5023759;28;19956;-68
2021/09/29 18:15:37;;;;;;;;;;;24.60;60.60;;;;;;5027303;28;20420;-69
2021/09/29 18:18:05;;;;;;;;;;;24.50;60.50;;;;;;5028010;28;19921;-69
2021/09/29 18:20:32;;;;;;;;;;;24.50;60.50;;;;;;5022866;28;20393;-68
2021/09/29 18:23:00;;;;;;;;;;;24.50;60.50;;;;;;5022834;28;20020;-66
2021/09/29 18:25:29;;;;;;;;;;;24.50;60.50;;;;;;5029251;28;20012;-68
2021/09/29 18:27:57;;;;;;;;;;;24.50;60.50;;;;;;5030323;28;19924;-65
2021/09/29 18:30:25;;;;;;;;;;;24.50;60.50;;;;;;5023720;28;19921;-65
2021/09/29 18:32:55;;;;;;;;;;;24.50;60.50;;;;;;5020690;28;20202;-69
2021/09/29 18:35:27;;;;;;;;;;;24.50;60.50;;;;;;5024388;28;20366;-68
2021/09/29 18:37:57;;;;;;;;;;;24.40;60.40;;;;;;5027490;28;19961;-69
2021/09/29 18:40:25;;;;;;;;;;;24.40;60.40;;;;;;5023545;28;20028;-68